| time (UTC) | temp F | wind direction | speed knots | gust knots | rain 1hr in | rain 24hr in | rain mn in | humidity % | barometer mb |
| 20260505083504 | 49 | 66 | 0.9 | 6.1 | 0.18 | 0.60 | 0.60 | 84 | 1004.7 |
| 20260505083004 | 49 | 33 | 1.7 | 6.1 | 0.20 | 0.60 | 0.60 | 84 | 1004.5 |
| 20260505082504 | 48 | 55 | 1.7 | 10.4 | 0.22 | 0.60 | 0.60 | 84 | 1003.9 |
| 20260505082004 | 49 | 76 | 1.7 | 10.4 | 0.23 | 0.60 | 0.60 | 84 | 1003.7 |
| 20260505081505 | 49 | 91 | 2.6 | 6.1 | 0.25 | 0.60 | 0.60 | 85 | 1003.1 |
| 20260505081004 | 49 | 108 | 1.7 | 6.1 | 0.24 | 0.58 | 0.58 | 84 | 1004.4 |
| 20260505080505 | 50 | 97 | 0.9 | 2.6 | 0.21 | 0.55 | 0.55 | 84 | 1006.2 |
| 20260505080005 | 50 | 96 | 0.9 | 2.6 | 0.18 | 0.52 | 0.52 | 84 | 1006.4 |
| 20260505075504 | 50 | 67 | 0.9 | 2.6 | 0.17 | 0.50 | 0.50 | 84 | 1006.8 |
| 20260505074504 | 51 | 102 | 1.7 | 2.6 | 0.14 | 0.46 | 0.46 | 84 | 1007.4 |
| 20260505074005 | 51 | 7 | 0.0 | 1.7 | 0.13 | 0.44 | 0.44 | 84 | 1007.8 |
| 20260505072504 | 52 | 341 | 0.9 | 2.6 | 0.13 | 0.38 | 0.38 | 83 | 1007.3 |
| 20260505071504 | 54 | 55 | 0.9 | 1.7 | 0.17 | 0.35 | 0.35 | 83 | 1006.4 |
| 20260505071004 | 54 | 56 | 0.9 | 1.7 | 0.20 | 0.34 | 0.34 | 83 | 1006.3 |
| 20260505070504 | 54 | 75 | 0.9 | 4.3 | 0.24 | 0.34 | 0.34 | 83 | 1005.5 |
| 20260505070004 | 55 | 35 | 0.0 | 4.3 | 0.31 | 0.34 | 0.34 | 84 | 1005.5 |
| 20260505065504 | 55 | 30 | 0.9 | 4.3 | 0.33 | 0.33 | 0.33 | 83 | 1005.0 |
| 20260505065004 | 55 | 66 | 0.9 | 1.7 | 0.33 | 0.33 | 0.33 | 83 | 1005.2 |
| 20260505064505 | 56 | 94 | 0.0 | 2.6 | 0.32 | 0.32 | 0.32 | 83 | 1005.5 |
| 20260505064005 | 56 | 187 | 0.9 | 2.6 | 0.31 | 0.31 | 0.31 | 82 | 1005.4 |
| 20260505063505 | 56 | 196 | 0.9 | 2.6 | 0.30 | 0.30 | 0.30 | 83 | 1005.6 |
| 20260505063004 | 56 | 92 | 0.9 | 1.7 | 0.28 | 0.28 | 0.28 | 83 | 1004.7 |
| 20260505062504 | 57 | 78 | 0.0 | 1.7 | 0.25 | 0.25 | 0.25 | 83 | 1004.6 |
| 20260505061505 | 58 | 61 | 0.0 | 4.3 | 0.18 | 0.18 | 0.18 | 80 | 1004.7 |
| 20260505061005 | 58 | 61 | 0.9 | 5.2 | 0.14 | 0.14 | 0.14 | 77 | 1004.5 |
| 20260505060505 | 60 | 81 | 0.9 | 8.7 | 0.10 | 0.10 | 0.10 | 72 | 1004.1 |
| 20260505060005 | 63 | 50 | 1.7 | 8.7 | 0.03 | 0.03 | 0.03 | 66 | 1003.8 |
| 20260505055504 | 64 | 112 | 1.7 | 13.0 | 0.00 | 0.00 | 0.00 | 58 | 1003.4 |
| 20260505055004 | 64 | 84 | 3.5 | 13.0 | 0.00 | 0.00 | 0.00 | 54 | 1003.1 |
| 20260505054505 | 64 | 35 | 2.6 | 13.0 | 0.00 | 0.00 | 0.00 | 54 | 1003.0 |
| 20260505054004 | 65 | 85 | 2.6 | 12.2 | 0.00 | 0.00 | 0.00 | 52 | 1002.9 |
| 20260505053004 | 68 | 41 | 2.6 | 7.0 | 0.00 | 0.00 | 0.00 | 48 | 1003.0 |
| 20260505052504 | 69 | 7 | 1.7 | 8.7 | 0.00 | 0.00 | 0.00 | 48 | 1002.9 |
| 20260505052004 | 69 | 68 | 0.9 | 10.4 | 0.00 | 0.00 | 0.00 | 51 | 1002.9 |
| 20260505051504 | 69 | 15 | 1.7 | 10.4 | 0.00 | 0.00 | 0.00 | 58 | 1002.3 |
| 20260505051004 | 69 | 316 | 0.9 | 6.1 | 0.00 | 0.00 | 0.00 | 71 | 1002.3 |
| 20260505050504 | 69 | 322 | 1.7 | 4.3 | 0.00 | 0.00 | 0.00 | 71 | 1002.0 |
| 20260505041504 | 71 | 203 | 0.9 | 2.6 | 0.00 | 0.00 | 0.00 | 69 | 1001.5 |
| 20260505040505 | 71 | 196 | 0.9 | 2.6 | 0.00 | 0.00 | 0.00 | 70 | 1001.7 |
| 20260505040005 | 71 | 205 | 0.9 | 2.6 | 0.00 | 0.00 | 0.00 | 70 | 1001.7 |
| 20260505035504 | 71 | 218 | 0.9 | 5.2 | 0.00 | 0.00 | 0.00 | 70 | 1001.7 |
| 20260505035004 | 71 | 191 | 1.7 | 5.2 | 0.00 | 0.00 | 0.00 | 70 | 1001.7 |
| 20260505034504 | 71 | 188 | 0.9 | 2.6 | 0.00 | 0.00 | 0.00 | 70 | 1001.7 |
| 20260505034005 | 71 | 239 | 0.9 | 2.6 | 0.00 | 0.00 | 0.00 | 70 | 1001.8 |
| 20260505032504 | 71 | 241 | 0.9 | 2.6 | 0.00 | 0.00 | 0.00 | 69 | 1001.7 |
| 20260505032004 | 71 | 239 | 1.7 | 2.6 | 0.00 | 0.00 | 0.00 | 69 | 1001.7 |
| 20260505031504 | 72 | 249 | 1.7 | 2.6 | 0.00 | 0.00 | 0.00 | 68 | 1001.6 |
| 20260505031004 | 72 | 249 | 0.9 | 2.6 | 0.00 | 0.00 | 0.00 | 68 | 1001.6 |
| 20260505030504 | 72 | 249 | 1.7 | 2.6 | 0.00 | 0.00 | 0.00 | 67 | 1001.5 |
| 20260505030004 | 72 | 249 | 0.9 | 2.6 | 0.00 | 0.00 | 0.00 | 66 | 1001.5 |
| 20260505025504 | 73 | 249 | 0.9 | 2.6 | 0.00 | 0.00 | 0.00 | 65 | 1001.5 |
| 20260505025004 | 73 | 249 | 0.9 | 2.6 | 0.00 | 0.00 | 0.00 | 65 | 1001.4 |
| 20260505024504 | 73 | 249 | 0.9 | 2.6 | 0.00 | 0.00 | 0.00 | 64 | 1001.3 |
| 20260505024004 | 73 | 249 | 0.9 | 2.6 | 0.00 | 0.00 | 0.00 | 63 | 1001.3 |
| 20260505023504 | 74 | 249 | 0.9 | 2.6 | 0.00 | 0.00 | 0.00 | 62 | 1001.1 |
| 20260505023004 | 74 | 249 | 0.9 | 2.6 | 0.00 | 0.00 | 0.00 | 61 | 1001.0 |
| 20260505022504 | 74 | 249 | 0.9 | 2.6 | 0.00 | 0.00 | 0.00 | 61 | 1001.0 |
| 20260505022004 | 75 | 249 | 0.9 | 1.7 | 0.00 | 0.00 | 0.00 | 60 | 1001.0 |
| 20260505021504 | 75 | 249 | 0.9 | 2.6 | 0.00 | 0.00 | 0.00 | 59 | 1000.9 |
| 20260505021005 | 75 | 249 | 0.9 | 2.6 | 0.00 | 0.00 | 0.00 | 58 | 1000.9 |
| 20260505020004 | 76 | 249 | 1.7 | 2.6 | 0.00 | 0.00 | 0.00 | 57 | 1000.8 |
| 20260505015504 | 76 | 249 | 1.7 | 2.6 | 0.00 | 0.00 | 0.00 | 57 | 1000.7 |
| 20260505015004 | 76 | 251 | 0.9 | 2.6 | 0.00 | 0.00 | 0.00 | 57 | 1000.7 |
| 20260505014004 | 76 | 251 | 1.7 | 2.6 | 0.00 | 0.00 | 0.00 | 56 | 1000.6 |
| 20260505013504 | 76 | 248 | 0.9 | 2.6 | 0.00 | 0.00 | 0.00 | 55 | 1000.5 |
| 20260505013004 | 77 | 248 | 0.9 | 4.3 | 0.00 | 0.00 | 0.00 | 55 | 1000.4 |
| 20260505012505 | 77 | 248 | 0.9 | 4.3 | 0.00 | 0.00 | 0.00 | 54 | 1000.4 |
| 20260505012004 | 77 | 246 | 1.7 | 2.6 | 0.00 | 0.00 | 0.00 | 54 | 1000.3 |
| 20260505011511 | 78 | 241 | 1.7 | 4.3 | 0.00 | 0.00 | 0.00 | 53 | 1000.2 |
| 20260505011004 | 78 | 247 | 1.7 | 7.8 | 0.00 | 0.00 | 0.00 | 53 | 1000.2 |
| 20260505010505 | 78 | 247 | 1.7 | 7.8 | 0.00 | 0.00 | 0.00 | 52 | 1000.1 |
| 20260505010005 | 78 | 246 | 2.6 | 4.3 | 0.00 | 0.00 | 0.00 | 51 | 1000.0 |
| 20260505005506 | 79 | 246 | 1.7 | 4.3 | 0.00 | 0.00 | 0.00 | 50 | 999.9 |
| 20260505005006 | 79 | 250 | 0.0 | 2.6 | 0.00 | 0.00 | 0.00 | 50 | 999.9 |
| 20260505004506 | 80 | 250 | 0.0 | 2.6 | 0.00 | 0.00 | 0.00 | 49 | 999.8 |
| 20260505004006 | 80 | 249 | 0.9 | 2.6 | 0.00 | 0.00 | 0.00 | 48 | 999.9 |
| 20260505003506 | 80 | 249 | 0.9 | 2.6 | 0.00 | 0.00 | 0.00 | 49 | 999.8 |
| 20260505003006 | 80 | 249 | 1.7 | 2.6 | 0.00 | 0.00 | 0.00 | 48 | 999.7 |
| 20260505002506 | 80 | 242 | 0.9 | 2.6 | 0.00 | 0.00 | 0.00 | 48 | 999.6 |
| 20260505002006 | 80 | 242 | 1.7 | 2.6 | 0.00 | 0.00 | 0.00 | 47 | 999.6 |
| 20260505001506 | 80 | 242 | 0.0 | 2.6 | 0.00 | 0.00 | 0.00 | 49 | 999.7 |
| 20260505001006 | 80 | 242 | 0.9 | 2.6 | 0.00 | 0.00 | 0.00 | 48 | 999.7 |
| 20260505000506 | 80 | 240 | 1.7 | 2.6 | 0.00 | 0.00 | 0.00 | 48 | 999.7 |
| 20260505000005 | 80 | 240 | 1.7 | 5.2 | 0.00 | 0.00 | 0.00 | 48 | 999.8 |
| 20260504235005 | 80 | 236 | 1.7 | 5.2 | 0.00 | 0.00 | 0.00 | 48 | 999.6 |
| 20260504234505 | 80 | 252 | 1.7 | 5.2 | 0.00 | 0.00 | 0.00 | 47 | 999.7 |
| 20260504234006 | 80 | 252 | 1.7 | 7.0 | 0.00 | 0.00 | 0.00 | 47 | 999.7 |
| 20260504233506 | 80 | 255 | 1.7 | 7.0 | 0.00 | 0.00 | 0.00 | 47 | 999.7 |
| 20260504233006 | 81 | 223 | 2.6 | 10.4 | 0.00 | 0.00 | 0.00 | 46 | 999.7 |
| 20260504232505 | 81 | 241 | 2.6 | 10.4 | 0.00 | 0.00 | 0.00 | 45 | 999.7 |
| 20260504232006 | 82 | 234 | 2.6 | 10.4 | 0.00 | 0.00 | 0.00 | 44 | 999.8 |
| 20260504231506 | 82 | 230 | 3.5 | 8.7 | 0.00 | 0.00 | 0.00 | 44 | 999.8 |
| 20260504230506 | 81 | 243 | 4.3 | 10.4 | 0.00 | 0.00 | 0.00 | 44 | 999.7 |
| 20260504225505 | 82 | 319 | 4.3 | 10.4 | 0.00 | 0.00 | 0.00 | 43 | 999.6 |
| 20260504225006 | 82 | 237 | 2.6 | 10.4 | 0.00 | 0.00 | 0.00 | 44 | 999.7 |
| 20260504224505 | 82 | 237 | 3.5 | 10.4 | 0.00 | 0.00 | 0.00 | 43 | 999.7 |
| 20260504223506 | 82 | 286 | 2.6 | 7.8 | 0.00 | 0.00 | 0.00 | 43 | 999.7 |
| 20260504222506 | 82 | 281 | 2.6 | 10.4 | 0.00 | 0.00 | 0.00 | 45 | 999.7 |
| 20260504221505 | 81 | 235 | 2.6 | 6.1 | 0.00 | 0.00 | 0.00 | 45 | 999.8 |
| 20260504220506 | 80 | 243 | 2.6 | 8.7 | 0.00 | 0.00 | 0.00 | 46 | 999.9 |
| 20260504215506 | 80 | 204 | 2.6 | 8.7 | 0.00 | 0.00 | 0.00 | 44 | 999.9 |
| 20260504215006 | 80 | 270 | 4.3 | 8.7 | 0.00 | 0.00 | 0.00 | 46 | 1000.0 |
| 20260504214505 | 80 | 307 | 3.5 | 10.4 | 0.00 | 0.00 | 0.00 | 45 | 1000.2 |
| 20260504213505 | 80 | 253 | 2.6 | 10.4 | 0.00 | 0.00 | 0.00 | 45 | 1000.1 |
| 20260504213006 | 80 | 278 | 4.3 | 10.4 | 0.00 | 0.00 | 0.00 | 45 | 1000.1 |
| 20260504212505 | 80 | 244 | 2.6 | 10.4 | 0.00 | 0.00 | 0.00 | 45 | 1000.2 |
| 20260504211506 | 80 | 225 | 2.6 | 10.4 | 0.00 | 0.00 | 0.00 | 44 | 1000.2 |
| 20260504211006 | 80 | 223 | 3.5 | 12.2 | 0.00 | 0.00 | 0.00 | 44 | 1000.3 |
| 20260504210506 | 80 | 283 | 5.2 | 12.2 | 0.00 | 0.00 | 0.00 | 44 | 1000.3 |
| 20260504210006 | 80 | 236 | 3.5 | 11.3 | 0.00 | 0.00 | 0.00 | 45 | 1000.3 |
| 20260504205505 | 80 | 222 | 5.2 | 11.3 | 0.00 | 0.00 | 0.00 | 43 | 1000.4 |
| 20260504205005 | 81 | 279 | 4.3 | 12.2 | 0.00 | 0.00 | 0.00 | 42 | 1000.5 |
| 20260504204005 | 81 | 298 | 3.5 | 10.4 | 0.00 | 0.00 | 0.00 | 42 | 1000.6 |
| 20260504203506 | 81 | 214 | 4.3 | 11.3 | 0.00 | 0.00 | 0.00 | 41 | 1000.6 |
| 20260504203005 | 81 | 234 | 4.3 | 17.4 | 0.00 | 0.00 | 0.00 | 42 | 1000.7 |
| 20260504202505 | 82 | 261 | 4.3 | 17.4 | 0.00 | 0.00 | 0.00 | 41 | 1000.7 |
| 20260504201506 | 81 | 195 | 3.5 | 11.3 | 0.00 | 0.00 | 0.00 | 44 | 1000.6 |
| 20260504201005 | 81 | 244 | 4.3 | 13.0 | 0.00 | 0.00 | 0.00 | 42 | 1000.6 |
| 20260504200005 | 81 | 307 | 3.5 | 12.2 | 0.00 | 0.00 | 0.00 | 45 | 1000.7 |
| 20260504195006 | 80 | 231 | 5.2 | 14.8 | 0.00 | 0.00 | 0.00 | 43 | 1000.8 |
| 20260504194506 | 80 | 305 | 6.1 | 14.8 | 0.00 | 0.00 | 0.00 | 43 | 1000.8 |
| 20260504194005 | 81 | 237 | 5.2 | 10.4 | 0.00 | 0.00 | 0.00 | 43 | 1000.8 |
| 20260504193506 | 81 | 312 | 3.5 | 10.4 | 0.00 | 0.00 | 0.00 | 44 | 1000.8 |
| 20260504192006 | 80 | 209 | 4.3 | 10.4 | 0.00 | 0.00 | 0.00 | 44 | 1000.8 |
| 20260504191505 | 80 | 219 | 2.6 | 8.7 | 0.00 | 0.00 | 0.00 | 44 | 1000.8 |
| 20260504190506 | 80 | 237 | 2.6 | 8.7 | 0.00 | 0.00 | 0.00 | 45 | 1000.8 |
| 20260504190005 | 79 | 202 | 3.5 | 8.7 | 0.00 | 0.00 | 0.00 | 45 | 1000.8 |
| 20260504184505 | 78 | 237 | 3.5 | 10.4 | 0.00 | 0.00 | 0.00 | 45 | 1000.9 |
| 20260504184005 | 78 | 252 | 3.5 | 10.4 | 0.00 | 0.00 | 0.00 | 46 | 1001.0 |
| 20260504183505 | 78 | 229 | 3.5 | 10.4 | 0.00 | 0.00 | 0.00 | 45 | 1001.0 |
| 20260504183005 | 77 | 233 | 3.5 | 12.2 | 0.00 | 0.00 | 0.00 | 46 | 1001.2 |
| 20260504182505 | 77 | 249 | 4.3 | 12.2 | 0.00 | 0.00 | 0.00 | 45 | 1001.3 |
| 20260504182005 | 77 | 299 | 3.5 | 12.2 | 0.00 | 0.00 | 0.00 | 46 | 1001.4 |
| 20260504181505 | 77 | 222 | 3.5 | 12.2 | 0.00 | 0.00 | 0.00 | 45 | 1001.5 |
| 20260504181006 | 77 | 255 | 4.3 | 12.2 | 0.00 | 0.00 | 0.00 | 46 | 1001.5 |
| 20260504180506 | 77 | 225 | 5.2 | 11.3 | 0.00 | 0.00 | 0.00 | 46 | 1001.5 |
| 20260504180005 | 76 | 235 | 4.3 | 12.2 | 0.00 | 0.00 | 0.00 | 48 | 1001.6 |
| 20260504175007 | 76 | 292 | 2.6 | 10.4 | 0.00 | 0.00 | 0.00 | 48 | 1001.6 |
| 20260504174505 | 76 | 224 | 2.6 | 11.3 | 0.00 | 0.00 | 0.00 | 48 | 1001.7 |
| 20260504174006 | 76 | 308 | 2.6 | 11.3 | 0.00 | 0.00 | 0.00 | 47 | 1001.7 |
| 20260504173506 | 75 | 274 | 4.3 | 11.3 | 0.00 | 0.00 | 0.00 | 47 | 1001.8 |
| 20260504173006 | 75 | 233 | 5.2 | 11.3 | 0.00 | 0.00 | 0.00 | 48 | 1001.7 |
| 20260504172505 | 75 | 270 | 4.3 | 10.4 | 0.00 | 0.00 | 0.00 | 47 | 1001.7 |
| 20260504171505 | 75 | 274 | 2.6 | 10.4 | 0.00 | 0.00 | 0.00 | 51 | 1001.8 |
| 20260504170506 | 74 | 225 | 3.5 | 12.2 | 0.00 | 0.00 | 0.00 | 49 | 1001.9 |
| 20260504151006 | 69 | 272 | 3.5 | 13.9 | 0.00 | 0.00 | 0.00 | 54 | 1002.2 |
| 20260504150506 | 69 | 240 | 4.3 | 13.0 | 0.00 | 0.00 | 0.00 | 55 | 1002.2 |
| 20260504140506 | 67 | 247 | 2.6 | 11.3 | 0.00 | 0.00 | 0.00 | 55 | 1002.2 |
| 20260504130505 | 64 | 225 | 2.6 | 10.4 | 0.00 | 0.00 | 0.00 | 58 | 1002.1 |
| 20260504100505 | 66 | 228 | 1.7 | 7.8 | 0.00 | 0.00 | 0.00 | 51 | 1002.6 |